< Cyclone 198004 1980 Season Cyclone 198006 >
Cyclone 198005 (AMY)
General InformationTrack Information on Google MapsDetailed Wind Information || ResourceGoogle EarthGE AnimationAtom FeedGeoJSON
Detalied Best Track (Time Zone = UTC)
Year Month Day Hour Lat. Long. Pressure (hPa) Wind (kt) Class Image Chart
1980 1 4 12 -14.4 120.5 998 20 2 -- --
1980 1 4 18 -14.6 120.1 997 25 2 -- --
1980 1 5 00 -14.7 119.8 995 30 2 -- --
1980 1 5 06 -14.7 119.8 992 30 2 -- --
1980 1 5 12 -14.7 119.7 990 35 3 -- --
1980 1 5 18 -14.7 119.7 987 40 3 -- --
1980 1 6 00 -14.7 119.7 985 50 4 -- --
1980 1 6 06 -14.7 119.5 980 50 4 -- --
1980 1 6 12 -14.7 119.3 975 55 4 -- --
1980 1 6 18 -14.8 119.1 970 60 4 -- --
1980 1 7 00 -14.9 118.8 965 65 5 -- --
1980 1 7 06 -15.3 118.5 959 70 5 -- --
1980 1 7 12 -15.7 118.3 954 80 5 -- --
1980 1 7 18 -16.3 118.3 949 85 5 -- --
1980 1 8 00 -17.0 118.3 945 90 5 -- --
1980 1 8 06 -17.5 118.3 937 95 5 -- --
1980 1 8 12 -18.0 118.4 932 100 5 -- --
1980 1 8 18 -18.4 118.5 925 105 5 -- --
1980 1 9 00 -18.7 118.8 920 110 5 -- --
1980 1 9 06 -19.1 119.3 918 110 5 -- --
1980 1 9 12 -19.3 119.6 916 115 5 -- --
1980 1 9 18 -19.5 119.8 915 115 5 -- --
1980 1 10 00 -19.7 119.8 915 115 5 -- --
1980 1 10 06 -20.2 119.6 925 115 5 -- --
1980 1 10 12 -20.5 119.2 940 115 5 -- --
1980 1 10 18 -21.0 118.4 974 100 5 -- --
1980 1 11 00 -21.9 117.9 985 90 5 -- --
1980 1 11 06 -22.7 117.0 989 60 4 -- --
1980 1 11 12 -23.9 116.8 992 45 3 -- --
1980 1 11 18 -25.2 116.9 995 35 3 -- --
1980 1 12 00 -26.3 117.0 999 30 2 -- --
1980 1 12 06 -28.5 117.6 1000 30 2 -- --
1980 1 12 12 -30.0 119.0 1002 25 2 -- --
1980 1 12 18 -31.3 121.3 1003 25 2 -- --
< Cyclone 198004 1980 Season Cyclone 198006 >

Help